Weather at Corte Alto Airport

Public forecast

Using degrees Celsius for public forecast. Weather courtesy of forecast.io.

Closest aviation weather report (METAR) to Corte Alto Airport

Closest report is Cañal Bajo Carlos - Hott Siebert Airport, 20.5 nm (38.1 km) NNE. Retrieved 2020/09/18 23:00 UTC (52 minutes ago):

SCJO 182300Z AUTO 17010KT 140V200 9999 BKN032/// BKN048/// 09/04 Q1029

Closest aviation forecast (TAF) to Corte Alto Airport

Forecast is more than 6 hours old.

Closest forecast is Cañal Bajo Carlos - Hott Siebert Airport, 20.5 nm (38.1 km) NNE. Retrieved 2020/09/18 12:33 UTC (11 hours ago):

TAF TAF SCJO 181008Z 1812/1912 24007KT 9999 SCT020 BKN050 TN08/1812Z TX12/1819Z TEMPO 1812/1816 18013KT 9000 -SHRA FEW013 BKN018 SCT045 BECMG 1816/1818 19012KT SCT035 BECMG 1819/1821 BKN055 BECMG 1822/1824 20005KT BKN035